Time;durP1;ratioP1;P1;durP2;ratioP2;P2;SDS_P1;SDS_P2;PMS_P1;PMS_P2;Temp;Humidity;BMP_temperature;BMP_pressure;BME280_temperature;BME280_humidity;BME280_pressure;Samples;Min_cycle;Max_cycle;Signal;HPM_P1;HPM_P2
2023/01/16 00:00:18;;;;;;;2.60;2.40;;;15.50;58.40;;;;;;5090265;28;20457;-78
2023/01/16 00:02:46;;;;;;;3.00;2.30;;;15.50;58.30;;;;;;5091424;28;20510;-79
2023/01/16 00:05:14;;;;;;;2.37;2.20;;;15.50;58.40;;;;;;5089849;28;20476;-78
2023/01/16 00:07:41;;;;;;;2.80;2.50;;;15.50;58.40;;;;;;5088319;28;20483;-78
2023/01/16 00:10:10;;;;;;;4.37;2.70;;;15.50;58.40;;;;;;5083623;28;20463;-78
2023/01/16 00:12:38;;;;;;;5.60;2.90;;;15.50;58.50;;;;;;5093362;28;20452;-78
2023/01/16 00:15:08;;;;;;;5.83;2.50;;;15.50;58.60;;;;;;5087172;28;20494;-77
2023/01/16 00:17:36;;;;;;;3.00;2.50;;;15.50;58.60;;;;;;5087860;28;20457;-77
2023/01/16 00:20:04;;;;;;;2.63;2.43;;;15.50;58.70;;;;;;5091629;28;21014;-77
2023/01/16 00:22:32;;;;;;;2.30;2.10;;;15.50;58.70;;;;;;5087352;28;20449;-79
2023/01/16 00:24:59;;;;;;;2.83;2.40;;;15.50;58.70;;;;;;5086856;28;20472;-77
2023/01/16 00:27:28;;;;;;;2.47;2.27;;;15.50;58.70;;;;;;5084467;28;20484;-78
2023/01/16 00:29:56;;;;;;;2.63;2.00;;;15.50;58.70;;;;;;5092135;28;20451;-78
2023/01/16 00:32:25;;;;;;;2.40;2.20;;;15.50;58.80;;;;;;5086603;28;20455;-78
2023/01/16 00:34:53;;;;;;;3.80;1.83;;;15.50;58.80;;;;;;5089755;28;20464;-81
2023/01/16 00:37:21;;;;;;;2.67;2.47;;;15.50;58.90;;;;;;5101106;28;20446;-80
2023/01/16 00:39:51;;;;;;;4.47;2.60;;;15.50;58.90;;;;;;5096718;28;20449;-79
2023/01/16 00:42:19;;;;;;;5.20;2.60;;;15.50;59.00;;;;;;5089041;28;20936;-78
2023/01/16 00:44:47;;;;;;;2.50;2.30;;;15.50;59.00;;;;;;5091037;28;20472;-77
2023/01/16 00:47:14;;;;;;;3.07;2.60;;;15.50;59.00;;;;;;5086467;28;20477;-77
2023/01/16 00:49:44;;;;;;;2.70;2.50;;;15.50;58.90;;;;;;5092977;28;20451;-76
2023/01/16 00:52:12;;;;;;;2.10;1.90;;;15.40;59.00;;;;;;5093850;28;20458;-77
2023/01/16 00:54:39;;;;;;;3.17;2.70;;;15.40;58.90;;;;;;5094487;28;21002;-77
2023/01/16 00:57:07;;;;;;;4.07;2.10;;;15.40;58.80;;;;;;5095071;28;20515;-77
2023/01/16 00:59:35;;;;;;;2.90;2.13;;;15.40;58.90;;;;;;5093301;28;20454;-77
2023/01/16 01:02:03;;;;;;;2.33;2.13;;;15.40;58.90;;;;;;5086018;28;20445;-77
2023/01/16 01:04:31;;;;;;;2.40;2.20;;;15.40;59.00;;;;;;5083406;28;20504;-77
2023/01/16 01:07:00;;;;;;;2.60;2.43;;;15.40;59.00;;;;;;5086543;28;20462;-76
2023/01/16 01:09:28;;;;;;;2.70;2.13;;;15.40;59.00;;;;;;5078773;28;20446;-76
2023/01/16 01:11:56;;;;;;;2.17;2.00;;;15.40;59.10;;;;;;5083202;28;20440;-75
2023/01/16 01:14:24;;;;;;;2.60;2.40;;;15.40;59.00;;;;;;5082346;28;20553;-78
2023/01/16 01:16:53;;;;;;;2.00;1.90;;;15.40;59.00;;;;;;5081365;28;20459;-77
2023/01/16 01:19:20;;;;;;;2.90;2.10;;;15.40;59.00;;;;;;5085657;28;20445;-77
2023/01/16 01:21:48;;;;;;;2.63;2.10;;;15.40;59.00;;;;;;5091901;28;20441;-78
2023/01/16 01:24:17;;;;;;;1.93;1.83;;;15.40;59.00;;;;;;5082816;28;20469;-78
2023/01/16 01:26:46;;;;;;;2.20;2.00;;;15.40;59.00;;;;;;5080941;28;20429;-78
2023/01/16 01:29:14;;;;;;;2.10;2.00;;;15.40;59.00;;;;;;5078703;28;20477;-76
2023/01/16 01:31:42;;;;;;;2.27;2.10;;;15.40;59.00;;;;;;5083246;28;20440;-77
2023/01/16 01:34:10;;;;;;;1.70;1.60;;;15.40;59.00;;;;;;5084991;28;20473;-78
2023/01/16 01:36:38;;;;;;;3.47;2.20;;;15.40;59.50;;;;;;5091022;28;20444;-78
2023/01/16 01:39:06;;;;;;;1.93;1.83;;;15.40;59.00;;;;;;5098207;28;20459;-77
2023/01/16 01:41:36;;;;;;;1.97;1.87;;;15.40;59.10;;;;;;5104463;28;20455;-77
2023/01/16 01:44:37;;;;;;;2.27;2.07;;;15.30;59.00;;;;;;5092602;28;20465;-77
2023/01/16 01:47:05;;;;;;;1.80;1.70;;;15.40;59.00;;;;;;5096891;28;20452;-75
2023/01/16 01:49:34;;;;;;;2.37;2.00;;;15.30;59.20;;;;;;5092860;28;20499;-77
2023/01/16 01:52:02;;;;;;;2.17;1.63;;;15.30;59.00;;;;;;5092240;28;20445;-77
2023/01/16 01:54:32;;;;;;;3.07;2.00;;;15.30;59.30;;;;;;5094126;28;20476;-78
2023/01/16 01:57:03;;;;;;;1.80;1.70;;;15.30;59.10;;;;;;5105818;28;20448;-78
2023/01/16 01:59:33;;;;;;;2.00;1.80;;;15.30;59.20;;;;;;5093051;28;20449;-78
2023/01/16 02:02:00;;;;;;;8.03;2.33;;;15.30;59.30;;;;;;5098509;28;20482;-75
2023/01/16 02:04:31;;;;;;;1.93;1.83;;;15.30;59.30;;;;;;5089401;28;20504;-79
2023/01/16 02:07:01;;;;;;;1.70;1.60;;;15.30;59.30;;;;;;5096357;28;20448;-78
2023/01/16 02:09:29;;;;;;;6.83;2.10;;;15.30;59.20;;;;;;5088407;28;20491;-78
2023/01/16 02:12:00;;;;;;;3.50;1.67;;;15.30;59.20;;;;;;5098990;28;20455;-78
2023/01/16 02:14:29;;;;;;;3.67;1.90;;;15.30;59.20;;;;;;5099074;28;20483;-78
2023/01/16 02:19:49;;;;;;;2.70;2.20;;;15.30;59.20;;;;;;5093735;28;20479;-78
2023/01/16 02:22:36;;;;;;;2.10;1.90;;;15.30;59.20;;;;;;5103133;28;20454;-78
2023/01/16 02:25:17;;;;;;;2.23;1.80;;;15.30;59.10;;;;;;5093931;28;20478;-78
2023/01/16 02:28:04;;;;;;;2.23;1.87;;;15.30;59.00;;;;;;5099858;28;20451;-78
2023/01/16 02:31:11;;;;;;;2.27;2.10;;;15.30;59.10;;;;;;5094062;28;20448;-78
2023/01/16 02:33:47;;;;;;;1.93;1.83;;;15.20;59.20;;;;;;5079081;28;20569;-78
2023/01/16 02:36:17;;;;;;;2.27;2.10;;;15.20;59.20;;;;;;5091226;28;20447;-78
2023/01/16 02:38:50;;;;;;;3.90;2.10;;;15.20;59.40;;;;;;5099500;28;20472;-78
2023/01/16 02:41:21;;;;;;;4.83;1.80;;;15.20;59.40;;;;;;5102270;28;20464;-78
2023/01/16 02:43:53;;;;;;;1.90;1.80;;;15.20;59.50;;;;;;5099717;28;20480;-77
2023/01/16 02:46:26;;;;;;;2.20;1.70;;;15.20;59.50;;;;;;5101469;28;20455;-78
2023/01/16 02:48:59;;;;;;;2.17;1.60;;;15.20;59.60;;;;;;5098293;28;20540;-78
2023/01/16 02:51:32;;;;;;;1.57;1.47;;;15.20;59.50;;;;;;5096906;28;20456;-78
2023/01/16 02:54:03;;;;;;;2.40;1.67;;;15.20;59.40;;;;;;5094747;28;20484;-78
2023/01/16 02:56:32;;;;;;;3.47;1.90;;;15.20;59.50;;;;;;5096289;28;20452;-78
2023/01/16 02:59:00;;;;;;;3.43;1.43;;;15.20;59.50;;;;;;5099895;28;20457;-75
2023/01/16 03:01:31;;;;;;;4.63;1.80;;;15.20;59.60;;;;;;5090579;28;20452;-78
2023/01/16 03:04:04;;;;;;;2.57;1.83;;;15.20;59.40;;;;;;5095858;28;20482;-78
2023/01/16 03:06:38;;;;;;;3.03;2.00;;;15.20;59.40;;;;;;5095260;28;20452;-78
2023/01/16 03:09:15;;;;;;;1.70;1.60;;;15.20;59.40;;;;;;5088018;28;20553;-75
2023/01/16 03:11:46;;;;;;;3.90;2.03;;;15.20;59.40;;;;;;5095883;28;20459;-75
2023/01/16 03:14:34;;;;;;;3.20;2.07;;;15.20;59.40;;;;;;5102953;28;20479;-76
2023/01/16 03:17:15;;;;;;;2.43;2.00;;;15.20;59.30;;;;;;5095162;28;20463;-76
2023/01/16 03:19:50;;;;;;;2.50;1.73;;;15.10;59.40;;;;;;5096635;28;20449;-76
2023/01/16 03:22:22;;;;;;;6.17;2.07;;;15.10;59.30;;;;;;5098821;28;20470;-77
2023/01/16 03:25:03;;;;;;;2.00;1.73;;;15.10;59.20;;;;;;5096465;28;20480;-76
2023/01/16 03:27:39;;;;;;;2.03;1.93;;;15.10;59.10;;;;;;5098963;28;20484;-77
2023/01/16 03:30:10;;;;;;;3.07;1.80;;;15.10;59.10;;;;;;5091310;28;20486;-76
2023/01/16 03:32:42;;;;;;;2.30;2.10;;;15.00;59.10;;;;;;5094393;28;20449;-76
2023/01/16 03:35:11;;;;;;;2.30;2.10;;;15.10;59.30;;;;;;5090364;28;20483;-76
2023/01/16 03:37:41;;;;;;;1.93;1.83;;;15.00;59.10;;;;;;5090698;28;20477;-76
2023/01/16 03:40:10;;;;;;;2.20;2.00;;;15.10;59.30;;;;;;5094736;28;20464;-76
2023/01/16 03:42:39;;;;;;;2.07;1.87;;;15.10;59.20;;;;;;5096544;28;20460;-77
2023/01/16 03:45:08;;;;;;;4.13;2.00;;;15.10;59.10;;;;;;5099735;28;20480;-77
2023/01/16 03:47:40;;;;;;;5.33;2.10;;;15.00;59.20;;;;;;5093793;28;20693;-78
2023/01/16 03:50:09;;;;;;;3.70;1.73;;;15.00;59.20;;;;;;5096583;28;20479;-76
2023/01/16 03:52:45;;;;;;;2.97;2.10;;;15.00;59.20;;;;;;5089022;28;20473;-76
2023/01/16 03:55:15;;;;;;;1.80;1.70;;;15.00;59.20;;;;;;5090508;28;20468;-76
2023/01/16 03:57:45;;;;;;;2.10;1.90;;;15.00;59.20;;;;;;5101569;28;20480;-76
2023/01/16 04:00:14;;;;;;;3.53;2.07;;;15.00;59.20;;;;;;5101532;28;20444;-76
2023/01/16 04:02:46;;;;;;;2.90;1.90;;;15.00;59.30;;;;;;5096824;28;20498;-77
2023/01/16 04:05:16;;;;;;;2.80;2.03;;;15.00;59.30;;;;;;5095178;28;20511;-76
2023/01/16 04:07:45;;;;;;;2.40;1.97;;;15.00;59.30;;;;;;5093328;28;20468;-76
2023/01/16 04:10:14;;;;;;;3.23;2.00;;;15.00;59.30;;;;;;5096269;28;20471;-77
2023/01/16 04:12:44;;;;;;;1.77;1.67;;;15.00;59.30;;;;;;5096330;28;20452;-78
2023/01/16 04:15:12;;;;;;;1.90;1.80;;;15.00;59.10;;;;;;5093250;28;20480;-76
2023/01/16 04:17:40;;;;;;;2.20;2.00;;;15.00;59.40;;;;;;5099010;28;20448;-76
2023/01/16 04:20:11;;;;;;;5.53;1.90;;;15.00;59.30;;;;;;5096473;28;20452;-76
2023/01/16 04:22:39;;;;;;;1.93;1.60;;;15.00;59.40;;;;;;5094496;28;20478;-76
2023/01/16 04:25:08;;;;;;;3.63;1.90;;;15.00;59.40;;;;;;5089933;28;20494;-76
2023/01/16 04:27:36;;;;;;;3.17;2.17;;;15.00;59.30;;;;;;5090584;28;20463;-77
2023/01/16 04:30:07;;;;;;;1.90;1.80;;;15.00;59.30;;;;;;5091019;28;20570;-77
2023/01/16 04:32:35;;;;;;;4.10;1.90;;;15.00;59.40;;;;;;5095915;28;20459;-76
2023/01/16 04:35:03;;;;;;;1.90;1.57;;;15.00;59.40;;;;;;5097986;28;20478;-76
2023/01/16 04:37:33;;;;;;;2.10;1.90;;;15.00;59.40;;;;;;5099384;28;20471;-76
2023/01/16 04:40:01;;;;;;;3.57;1.90;;;15.00;59.30;;;;;;5096218;28;20456;-77
2023/01/16 04:42:29;;;;;;;2.20;2.00;;;15.00;59.40;;;;;;5100041;28;20451;-77
2023/01/16 04:44:57;;;;;;;2.60;1.80;;;15.00;59.30;;;;;;5103950;28;20475;-77
2023/01/16 04:47:25;;;;;;;1.90;1.80;;;15.00;59.30;;;;;;5094278;28;20453;-78
2023/01/16 04:49:53;;;;;;;1.93;1.83;;;15.00;59.10;;;;;;5102723;28;20483;-78
2023/01/16 04:52:20;;;;;;;1.70;1.60;;;14.90;59.10;;;;;;5095174;28;20472;-77
2023/01/16 04:54:50;;;;;;;1.90;1.80;;;15.00;59.10;;;;;;5096243;28;20480;-77
2023/01/16 04:57:18;;;;;;;2.57;1.97;;;15.00;59.10;;;;;;5084283;28;20450;-77
2023/01/16 04:59:46;;;;;;;2.93;1.87;;;14.90;59.00;;;;;;5093364;28;20456;-77
2023/01/16 05:02:14;;;;;;;4.17;1.97;;;15.00;59.00;;;;;;5092119;28;20452;-76
2023/01/16 05:04:42;;;;;;;1.83;1.73;;;14.90;58.80;;;;;;5098526;28;20534;-77
2023/01/16 05:07:10;;;;;;;2.17;1.97;;;14.90;58.80;;;;;;5097887;28;20460;-77
2023/01/16 05:09:38;;;;;;;2.10;1.70;;;15.00;58.80;;;;;;5098519;28;20472;-77
2023/01/16 05:12:07;;;;;;;3.47;2.10;;;15.00;58.70;;;;;;5096675;28;20455;-77
2023/01/16 05:14:35;;;;;;;2.27;1.67;;;15.00;58.70;;;;;;5096045;28;20543;-77
2023/01/16 05:17:03;;;;;;;1.70;1.60;;;15.00;58.60;;;;;;5101824;28;20459;-77
2023/01/16 05:19:31;;;;;;;2.13;1.83;;;14.90;58.50;;;;;;5098475;28;20453;-79
2023/01/16 05:21:59;;;;;;;3.03;1.90;;;14.90;58.50;;;;;;5100117;28;20449;-77
2023/01/16 05:24:27;;;;;;;1.90;1.80;;;14.90;58.50;;;;;;5094614;28;20467;-77
2023/01/16 05:26:55;;;;;;;1.93;1.67;;;14.90;58.60;;;;;;5089780;28;20476;-76
2023/01/16 05:29:24;;;;;;;2.20;2.00;;;14.90;58.50;;;;;;5098539;28;20448;-77
2023/01/16 05:31:52;;;;;;;2.27;1.60;;;14.90;58.40;;;;;;5093428;28;20464;-77
2023/01/16 05:34:20;;;;;;;1.90;1.80;;;14.90;58.50;;;;;;5096469;28;20465;-76
2023/01/16 05:36:48;;;;;;;1.90;1.80;;;14.90;58.50;;;;;;5088147;28;20534;-77
2023/01/16 05:39:15;;;;;;;3.77;2.40;;;14.90;58.50;;;;;;5087286;28;20456;-76
2023/01/16 05:41:44;;;;;;;2.10;2.00;;;14.90;58.40;;;;;;5096032;28;20449;-76
2023/01/16 05:44:11;;;;;;;1.97;1.73;;;14.90;58.40;;;;;;5099110;28;20472;-76
2023/01/16 05:46:41;;;;;;;4.00;1.90;;;14.90;58.40;;;;;;5094785;28;20444;-76
2023/01/16 05:49:09;;;;;;;2.57;2.10;;;14.90;58.30;;;;;;5092726;28;20467;-76
2023/01/16 05:51:37;;;;;;;2.27;1.70;;;14.90;58.30;;;;;;5093709;28;20491;-77
2023/01/16 05:54:05;;;;;;;3.43;1.70;;;14.90;58.40;;;;;;5088666;28;20484;-74
2023/01/16 05:56:33;;;;;;;2.13;1.80;;;14.80;58.50;;;;;;5093631;28;20485;-77
2023/01/16 05:59:02;;;;;;;3.07;1.53;;;14.80;58.40;;;;;;5096762;28;20449;-76
2023/01/16 06:01:30;;;;;;;1.87;1.77;;;14.80;58.40;;;;;;5092708;28;20452;-75
2023/01/16 06:04:00;;;;;;;4.60;2.40;;;14.90;58.60;;;;;;5096365;28;20473;-78
2023/01/16 06:06:27;;;;;;;1.70;1.60;;;14.90;58.50;;;;;;5091528;28;20445;-76
2023/01/16 06:08:56;;;;;;;5.13;1.90;;;14.90;58.50;;;;;;5094486;28;20452;-77
2023/01/16 06:11:23;;;;;;;1.73;1.63;;;14.80;58.50;;;;;;5090797;28;20486;-76
2023/01/16 06:13:51;;;;;;;2.00;1.90;;;14.90;58.60;;;;;;5086700;28;20492;-77
2023/01/16 06:16:22;;;;;;;1.90;1.70;;;14.80;58.40;;;;;;5094217;28;20460;-76
2023/01/16 06:18:50;;;;;;;1.93;1.80;;;14.80;58.50;;;;;;5094078;28;20491;-77
2023/01/16 06:21:20;;;;;;;3.10;1.67;;;14.90;58.50;;;;;;5089735;28;20472;-77
2023/01/16 06:23:48;;;;;;;1.63;1.53;;;14.80;58.40;;;;;;5085832;28;20476;-77
2023/01/16 06:26:16;;;;;;;2.50;1.60;;;14.80;58.50;;;;;;5090076;28;20460;-76
2023/01/16 06:28:44;;;;;;;2.30;2.00;;;14.80;58.60;;;;;;5090997;28;20453;-77
2023/01/16 06:31:12;;;;;;;1.90;1.80;;;14.80;58.70;;;;;;5088532;28;20482;-77
2023/01/16 06:33:40;;;;;;;1.90;1.80;;;14.80;58.70;;;;;;5093596;28;20484;-76
2023/01/16 06:36:08;;;;;;;1.90;1.80;;;14.80;58.60;;;;;;5091075;28;20464;-76
2023/01/16 06:38:38;;;;;;;1.93;1.83;;;14.80;58.70;;;;;;5092523;28;20459;-77
2023/01/16 06:41:06;;;;;;;1.87;1.77;;;14.80;58.60;;;;;;5094251;28;20848;-76
2023/01/16 06:43:34;;;;;;;2.20;1.70;;;14.80;58.70;;;;;;5094380;28;20468;-76
2023/01/16 06:46:01;;;;;;;1.73;1.63;;;14.80;58.60;;;;;;5094790;28;20467;-77
2023/01/16 06:48:31;;;;;;;2.27;1.80;;;14.70;58.70;;;;;;5088880;28;21056;-77
2023/01/16 06:50:59;;;;;;;2.10;1.90;;;14.70;58.60;;;;;;5088796;28;20485;-76
2023/01/16 06:53:27;;;;;;;1.90;1.80;;;14.80;58.70;;;;;;5095998;28;20479;-76
2023/01/16 06:55:56;;;;;;;1.80;1.70;;;14.70;58.60;;;;;;5090227;28;20444;-78
2023/01/16 06:58:24;;;;;;;2.70;1.87;;;14.70;58.50;;;;;;5098051;28;20440;-76
2023/01/16 07:00:52;;;;;;;1.83;1.73;;;14.80;58.50;;;;;;5093865;28;20455;-76
2023/01/16 07:03:21;;;;;;;1.90;1.80;;;14.70;58.50;;;;;;5090204;28;20536;-76
2023/01/16 07:05:48;;;;;;;1.97;1.87;;;14.70;58.50;;;;;;5092226;28;20456;-77
2023/01/16 07:08:17;;;;;;;2.03;1.67;;;14.70;58.50;;;;;;5094917;28;20464;-76
2023/01/16 07:10:44;;;;;;;2.57;1.63;;;14.70;58.60;;;;;;5088521;28;20461;-76
2023/01/16 07:13:14;;;;;;;1.60;1.50;;;14.70;58.50;;;;;;5088191;28;20464;-76
2023/01/16 07:24:02;;;;;;;2.33;1.73;;;14.70;58.60;;;;;;5087312;28;20555;-77
2023/01/16 07:26:30;;;;;;;1.80;1.70;;;14.70;58.60;;;;;;5091545;28;20479;-77
2023/01/16 07:28:59;;;;;;;3.33;1.90;;;14.70;58.60;;;;;;5090450;28;20447;-76
2023/01/16 07:31:28;;;;;;;2.13;1.70;;;14.70;58.60;;;;;;5092108;28;20472;-76
2023/01/16 07:33:56;;;;;;;2.10;1.73;;;14.70;58.80;;;;;;5094505;28;20472;-77
2023/01/16 07:36:24;;;;;;;1.73;1.63;;;14.70;58.70;;;;;;5096258;28;20459;-77
2023/01/16 07:38:52;;;;;;;2.50;2.00;;;14.70;58.60;;;;;;5092136;28;20452;-77
2023/01/16 07:41:21;;;;;;;2.80;2.00;;;14.70;58.60;;;;;;5089829;28;20451;-77
2023/01/16 07:43:48;;;;;;;2.13;1.90;;;14.70;58.60;;;;;;5084417;28;20511;-77
2023/01/16 07:46:17;;;;;;;2.03;1.80;;;14.70;58.70;;;;;;5090738;28;20538;-77
2023/01/16 07:48:45;;;;;;;2.90;1.77;;;14.80;58.70;;;;;;5086874;28;20455;-77
2023/01/16 07:51:13;;;;;;;2.40;1.60;;;14.70;58.70;;;;;;5095115;28;21254;-77
2023/01/16 07:53:40;;;;;;;1.83;1.73;;;14.70;58.80;;;;;;5089931;28;20483;-77
2023/01/16 07:56:08;;;;;;;1.70;1.60;;;14.70;58.80;;;;;;5090330;28;20449;-77
2023/01/16 07:58:37;;;;;;;2.20;2.00;;;14.70;58.70;;;;;;5091973;28;20482;-77
2023/01/16 08:01:06;;;;;;;2.30;2.10;;;14.70;58.70;;;;;;5085789;28;20441;-77
2023/01/16 08:03:35;;;;;;;2.27;2.07;;;14.70;58.80;;;;;;5091195;28;20473;-77
2023/01/16 08:06:03;;;;;;;2.23;2.00;;;14.70;58.70;;;;;;5091534;28;20458;-77
2023/01/16 08:08:31;;;;;;;2.80;1.90;;;14.70;58.70;;;;;;5095855;28;20455;-76
2023/01/16 08:11:34;;;;;;;1.80;1.57;;;14.70;58.70;;;;;;5091558;28;20468;-78
2023/01/16 08:13:48;;;;;;;2.30;2.10;;;14.70;58.70;;;;;;5089328;28;20491;-77
2023/01/16 08:16:16;;;;;;;2.30;2.10;;;14.70;58.80;;;;;;5096677;28;20444;-77
2023/01/16 08:18:48;;;;;;;2.07;1.97;;;14.80;58.80;;;;;;5091279;28;20953;-77
2023/01/16 08:21:17;;;;;;;1.80;1.70;;;14.80;58.70;;;;;;5097414;28;20447;-77
2023/01/16 08:23:44;;;;;;;3.17;1.97;;;14.80;58.80;;;;;;5091407;28;20479;-78
2023/01/16 08:26:13;;;;;;;2.33;1.93;;;14.80;58.80;;;;;;5087677;28;20455;-77
2023/01/16 08:28:41;;;;;;;2.00;1.90;;;14.80;58.70;;;;;;5087917;28;20456;-76
2023/01/16 08:31:11;;;;;;;2.03;1.90;;;14.80;58.70;;;;;;5082220;28;20488;-77
2023/01/16 08:33:39;;;;;;;2.60;2.20;;;14.80;58.70;;;;;;5089374;28;20559;-77
2023/01/16 08:36:10;;;;;;;2.47;2.30;;;14.80;58.80;;;;;;5088932;28;20461;-77
2023/01/16 08:38:37;;;;;;;2.27;2.07;;;14.90;58.70;;;;;;5094522;28;20437;-77
2023/01/16 08:51:21;;;;;;;2.33;2.13;;;14.90;59.00;;;;;;5088831;28;20460;-77
2023/01/16 08:52:11;;;;;;;2.30;2.10;;;14.90;58.70;;;;;;5092632;28;20468;-76
2023/01/16 08:54:38;;;;;;;2.70;2.33;;;14.90;58.80;;;;;;5094384;28;20483;-77
2023/01/16 08:57:06;;;;;;;3.20;2.20;;;15.00;58.80;;;;;;5091277;28;20449;-76
2023/01/16 08:59:34;;;;;;;4.20;1.80;;;15.00;58.80;;;;;;5089810;28;20445;-76
2023/01/16 09:02:02;;;;;;;2.43;2.23;;;15.00;58.80;;;;;;5091899;28;20441;-76
2023/01/16 09:04:30;;;;;;;2.30;2.10;;;15.00;58.70;;;;;;5089341;28;20468;-76
2023/01/16 09:06:58;;;;;;;3.13;2.20;;;15.00;58.70;;;;;;5092233;28;20449;-76
2023/01/16 09:09:29;;;;;;;2.83;2.40;;;15.00;58.60;;;;;;5091049;28;20456;-77
2023/01/16 09:14:43;;;;;;;2.70;2.47;;;15.10;58.70;;;;;;5089227;28;20476;-76
2023/01/16 09:17:10;;;;;;;3.30;2.57;;;15.10;58.80;;;;;;5092904;28;20963;-78
2023/01/16 09:19:38;;;;;;;2.30;2.00;;;15.20;58.80;;;;;;5091930;28;20453;-77
2023/01/16 09:22:07;;;;;;;3.20;2.47;;;15.20;58.70;;;;;;5093052;28;20448;-77
2023/01/16 09:24:37;;;;;;;2.57;2.30;;;15.20;58.70;;;;;;5095976;28;20479;-77
2023/01/16 09:27:05;;;;;;;2.83;2.03;;;15.20;58.60;;;;;;5096016;28;20468;-78
2023/01/16 09:29:33;;;;;;;3.23;2.40;;;15.20;58.80;;;;;;5093578;28;20958;-77
2023/01/16 09:32:07;;;;;;;2.67;2.47;;;15.20;58.70;;;;;;5090396;28;20473;-78
2023/01/16 09:34:35;;;;;;;2.37;2.20;;;15.20;58.80;;;;;;5086112;28;21051;-77
2023/01/16 09:37:04;;;;;;;5.33;2.10;;;15.20;58.80;;;;;;5088628;28;20450;-77
2023/01/16 09:39:31;;;;;;;2.10;2.00;;;15.20;58.80;;;;;;5092632;28;20456;-77
2023/01/16 09:44:55;;;;;;;2.87;2.30;;;15.30;58.90;;;;;;5090109;28;20476;-78
2023/01/16 09:47:24;;;;;;;2.50;2.30;;;15.30;58.90;;;;;;5091746;28;20453;-76
2023/01/16 09:49:52;;;;;;;3.90;2.10;;;15.30;58.90;;;;;;5082886;28;20975;-76
2023/01/16 10:00:47;;;;;;;2.23;2.00;;;15.40;58.80;;;;;;5085264;28;20449;-76
2023/01/16 10:03:15;;;;;;;3.17;2.20;;;15.40;58.80;;;;;;5090569;28;20947;-77
2023/01/16 10:05:46;;;;;;;2.80;2.30;;;15.50;58.80;;;;;;5091789;28;20448;-76
2023/01/16 10:08:18;;;;;;;2.37;2.20;;;15.50;58.80;;;;;;5088761;28;20452;-76
2023/01/16 10:10:47;;;;;;;2.27;2.07;;;15.50;58.80;;;;;;5090681;28;20465;-76
2023/01/16 10:13:50;;;;;;;1.93;1.80;;;15.50;58.70;;;;;;5081833;28;20469;-77
2023/01/16 10:16:23;;;;;;;2.10;2.00;;;15.50;58.50;;;;;;5087645;28;20453;-76
2023/01/16 10:18:55;;;;;;;2.20;2.03;;;15.50;58.60;;;;;;5080503;28;20528;-76
2023/01/16 10:22:09;;;;;;;3.53;3.10;;;15.50;58.60;;;;;;5080580;28;20434;-77
2023/01/16 10:24:44;;;;;;;3.43;3.13;;;15.50;58.70;;;;;;5020911;28;20543;-77
2023/01/16 10:27:17;;;;;;;3.87;3.47;;;15.50;58.70;;;;;;5022638;28;20450;-76
2023/01/16 10:29:49;;;;;;;6.40;3.50;;;15.50;58.50;;;;;;5057983;28;20444;-77
2023/01/16 10:32:21;;;;;;;4.83;3.50;;;15.50;58.50;;;;;;5089119;28;20481;-77
2023/01/16 10:34:52;;;;;;;4.63;3.90;;;15.50;58.50;;;;;;5086690;28;20525;-75
2023/01/16 10:37:20;;;;;;;5.70;3.87;;;15.50;58.40;;;;;;5090034;28;20456;-81
2023/01/16 10:39:49;;;;;;;7.33;4.20;;;15.50;58.50;;;;;;5086642;28;20446;-81
2023/01/16 10:50:45;;;;;;;6.33;4.50;;;15.50;58.70;;;;;;5099683;28;20441;-82
2023/01/16 10:53:13;;;;;;;6.83;4.43;;;15.50;58.60;;;;;;5097731;28;20472;-82
2023/01/16 10:55:43;;;;;;;8.50;4.03;;;15.50;58.60;;;;;;5083986;28;20452;-78
2023/01/16 10:58:19;;;;;;;5.30;4.17;;;15.50;58.80;;;;;;5085675;28;20445;-78
2023/01/16 11:00:49;;;;;;;6.97;4.33;;;15.50;59.00;;;;;;5086854;28;20452;-78
2023/01/16 11:03:19;;;;;;;20.17;4.70;;;15.50;58.90;;;;;;5089184;28;20449;-76
2023/01/16 11:05:47;;;;;;;6.90;4.73;;;15.50;58.90;;;;;;5091851;28;20452;-78
2023/01/16 11:08:17;;;;;;;6.27;4.30;;;15.50;59.10;;;;;;5091213;28;20459;-79
2023/01/16 11:10:46;;;;;;;7.50;4.07;;;15.50;59.00;;;;;;5088210;28;20448;-79
2023/01/16 11:18:51;;;;;;;4.20;3.80;;;15.40;59.00;;;;;;5084263;28;20449;-78
2023/01/16 11:21:26;;;;;;;5.93;4.30;;;15.30;59.00;;;;;;5083533;28;20455;-78
2023/01/16 11:23:57;;;;;;;10.83;4.03;;;15.30;59.10;;;;;;5085529;28;20495;-79
2023/01/16 11:26:25;;;;;;;6.67;4.53;;;15.30;58.90;;;;;;5087338;28;20464;-78
2023/01/16 11:28:54;;;;;;;6.10;4.27;;;15.30;58.80;;;;;;5087323;28;20456;-78
2023/01/16 11:31:25;;;;;;;4.40;3.47;;;15.30;59.00;;;;;;5085031;28;20456;-78
2023/01/16 11:33:57;;;;;;;4.70;3.90;;;15.30;59.00;;;;;;5085438;28;20523;-78
2023/01/16 11:36:25;;;;;;;6.93;3.80;;;15.30;59.00;;;;;;5087739;28;20456;-77
2023/01/16 11:38:53;;;;;;;7.97;3.70;;;15.30;59.00;;;;;;5087857;28;20456;-78
2023/01/16 11:41:23;;;;;;;4.00;3.40;;;15.30;59.00;;;;;;5085037;28;20445;-78
2023/01/16 11:46:58;;;;;;;4.47;4.00;;;15.20;58.90;;;;;;5084110;28;20513;-79
2023/01/16 11:49:27;;;;;;;6.07;3.73;;;15.20;59.00;;;;;;5082490;28;20548;-78
2023/01/16 11:51:56;;;;;;;5.00;3.53;;;15.20;59.00;;;;;;5085675;28;20445;-78
2023/01/16 11:54:27;;;;;;;4.40;3.53;;;15.20;59.10;;;;;;5086927;28;20478;-78
2023/01/16 11:57:13;;;;;;;4.77;3.60;;;15.30;59.00;;;;;;5086458;28;20455;-77
2023/01/16 12:00:00;;;;;;;4.37;3.63;;;15.20;59.10;;;;;;5085815;28;20452;-77
2023/01/16 12:02:42;;;;;;;6.10;3.50;;;15.20;59.10;;;;;;5089310;28;20448;-77
2023/01/16 12:08:09;;;;;;;4.70;3.30;;;15.20;59.10;;;;;;5085250;28;20448;-77
2023/01/16 12:10:41;;;;;;;3.87;3.43;;;15.20;59.10;;;;;;5087771;28;20479;-77
2023/01/16 12:16:08;;;;;;;5.07;2.87;;;15.20;59.20;;;;;;5083616;28;20448;-77
2023/01/16 12:18:42;;;;;;;3.73;3.20;;;15.20;59.20;;;;;;5091363;28;20595;-76
2023/01/16 12:21:16;;;;;;;4.30;2.60;;;15.20;59.20;;;;;;5087964;28;20449;-77
2023/01/16 12:23:50;;;;;;;4.23;2.93;;;15.20;59.10;;;;;;5086751;28;20468;-77
2023/01/16 12:26:25;;;;;;;3.90;2.67;;;15.20;59.00;;;;;;5092510;28;20502;-77
2023/01/16 12:29:10;;;;;;;5.53;2.70;;;15.20;59.00;;;;;;5090240;28;20452;-77
2023/01/16 12:31:50;;;;;;;3.87;2.90;;;15.20;59.10;;;;;;5087949;28;20459;-77
2023/01/16 12:34:45;;;;;;;3.17;2.43;;;15.20;59.10;;;;;;5090072;28;20479;-77
2023/01/16 12:37:23;;;;;;;4.50;2.70;;;15.20;59.10;;;;;;5092882;28;20463;-77
2023/01/16 12:39:55;;;;;;;4.73;2.63;;;15.20;58.90;;;;;;5093123;28;20463;-76
2023/01/16 12:45:28;;;;;;;2.67;2.43;;;15.20;58.90;;;;;;5087576;28;20477;-77
2023/01/16 12:48:04;;;;;;;6.57;2.73;;;15.20;59.10;;;;;;5087323;28;20449;-77
2023/01/16 12:50:46;;;;;;;3.03;2.40;;;15.20;59.10;;;;;;5086669;28;20460;-76
2023/01/16 12:53:23;;;;;;;2.60;2.17;;;15.20;58.80;;;;;;5091429;28;20460;-77
2023/01/16 12:55:55;;;;;;;3.50;2.60;;;15.30;59.00;;;;;;5089338;28;20445;-76
2023/01/16 12:58:35;;;;;;;2.37;2.17;;;15.30;59.00;;;;;;5095979;28;20456;-77
2023/01/16 13:01:09;;;;;;;2.73;2.33;;;15.30;59.00;;;;;;5096763;28;20456;-77
2023/01/16 13:03:39;;;;;;;2.50;2.30;;;15.30;58.90;;;;;;5091395;28;20472;-76
2023/01/16 13:06:11;;;;;;;2.50;2.30;;;15.30;58.90;;;;;;5090739;28;20443;-77
2023/01/16 13:08:40;;;;;;;2.40;2.20;;;15.30;59.00;;;;;;5094460;28;20453;-77
2023/01/16 13:13:58;;;;;;;5.33;2.10;;;15.30;59.00;;;;;;5090601;28;20480;-77
2023/01/16 13:16:28;;;;;;;2.30;2.10;;;15.30;58.90;;;;;;5086198;28;20456;-77
2023/01/16 13:18:57;;;;;;;3.77;2.20;;;15.30;59.00;;;;;;5091873;28;20460;-77
2023/01/16 13:21:28;;;;;;;3.77;2.23;;;15.30;59.10;;;;;;5097477;28;20454;-77
2023/01/16 13:23:59;;;;;;;2.50;2.10;;;15.30;59.00;;;;;;5095024;28;20478;-77
2023/01/16 13:26:27;;;;;;;2.97;2.00;;;15.30;59.20;;;;;;5093375;28;20449;-76
2023/01/16 13:28:57;;;;;;;2.70;2.10;;;15.30;59.10;;;;;;5099789;28;20576;-77
2023/01/16 13:31:31;;;;;;;3.00;2.13;;;15.30;59.20;;;;;;5096082;28;20449;-77
2023/01/16 13:34:03;;;;;;;4.33;2.30;;;15.30;59.20;;;;;;5098242;28;20535;-77
2023/01/16 13:36:58;;;;;;;2.57;1.93;;;15.30;59.00;;;;;;5092504;28;20480;-77
2023/01/16 13:39:59;;;;;;;2.67;2.10;;;15.30;59.10;;;;;;5098724;28;20529;-77
2023/01/16 13:42:27;;;;;;;4.07;2.10;;;15.30;59.00;;;;;;5090480;28;20451;-77
2023/01/16 13:47:44;;;;;;;2.83;2.53;;;15.30;59.30;;;;;;5099394;28;20448;-77
2023/01/16 13:50:19;;;;;;;3.73;1.83;;;15.20;59.10;;;;;;5089573;28;20453;-77
2023/01/16 13:52:48;;;;;;;2.70;2.10;;;15.30;59.00;;;;;;5093714;28;20462;-78
2023/01/16 13:55:26;;;;;;;2.87;2.00;;;15.20;59.00;;;;;;5091221;28;20496;-77
2023/01/16 13:57:54;;;;;;;3.80;2.00;;;15.20;59.10;;;;;;5096366;28;20447;-77
2023/01/16 14:00:23;;;;;;;3.83;1.93;;;15.20;59.00;;;;;;5097602;28;20460;-77
2023/01/16 14:03:02;;;;;;;2.50;1.80;;;15.20;58.90;;;;;;5094744;28;20875;-77
2023/01/16 14:05:43;;;;;;;5.23;1.73;;;15.20;59.10;;;;;;5087549;28;20471;-76
2023/01/16 14:11:14;;;;;;;1.77;1.67;;;15.20;58.90;;;;;;5093490;28;20452;-77
2023/01/16 14:13:43;;;;;;;2.03;1.60;;;15.10;58.80;;;;;;5096351;28;20488;-77